sensor_id;sensor_type;location;lat;lon;timestamp;P1;durP1;ratioP1;P2;durP2;ratioP2
9264;SDS011;4669;49.594;10.958;2023-04-28T04:30:05;11.50;;;4.38;;
9264;SDS011;4669;49.594;10.958;2023-04-28T04:35:10;5.72;;;4.47;;
9264;SDS011;4669;49.594;10.958;2023-04-28T04:40:12;5.53;;;4.18;;
9264;SDS011;4669;49.594;10.958;2023-04-28T04:45:22;7.75;;;4.43;;
9264;SDS011;4669;49.594;10.958;2023-04-28T04:50:25;8.43;;;4.75;;
9264;SDS011;4669;49.594;10.958;2023-04-28T04:55:27;5.22;;;4.68;;
9264;SDS011;4669;49.594;10.958;2023-04-28T05:00:32;17.20;;;12.13;;
9264;SDS011;4669;49.594;10.958;2023-04-28T05:05:35;7.05;;;5.30;;
9264;SDS011;4669;49.594;10.958;2023-04-28T05:10:43;6.78;;;4.97;;
9264;SDS011;4669;49.594;10.958;2023-04-28T05:15:47;5.90;;;4.53;;
9264;SDS011;4669;49.594;10.958;2023-04-28T05:21:03;7.65;;;5.80;;
9264;SDS011;4669;49.594;10.958;2023-04-28T05:26:06;9.00;;;6.57;;
9264;SDS011;4669;49.594;10.958;2023-04-28T05:31:10;10.07;;;4.82;;
9264;SDS011;4669;49.594;10.958;2023-04-28T05:36:12;11.48;;;5.30;;
9264;SDS011;4669;49.594;10.958;2023-04-28T05:41:16;9.85;;;4.85;;
9264;SDS011;4669;49.594;10.958;2023-04-28T05:46:19;7.07;;;5.55;;
9264;SDS011;4669;49.594;10.958;2023-04-28T05:51:21;18.05;;;14.15;;
9264;SDS011;4669;49.594;10.958;2023-04-28T05:56:25;9.13;;;5.70;;
9264;SDS011;4669;49.594;10.958;2023-04-28T06:01:28;10.20;;;5.28;;
9264;SDS011;4669;49.594;10.958;2023-04-28T06:06:31;13.27;;;6.50;;
9264;SDS011;4669;49.594;10.958;2023-04-28T06:11:34;7.63;;;5.78;;
9264;SDS011;4669;49.594;10.958;2023-04-28T06:16:38;9.10;;;5.93;;
9264;SDS011;4669;49.594;10.958;2023-04-28T06:21:40;7.32;;;5.25;;
9264;SDS011;4669;49.594;10.958;2023-04-28T06:26:42;7.85;;;4.63;;
9264;SDS011;4669;49.594;10.958;2023-04-28T06:31:45;7.15;;;4.65;;
9264;SDS011;4669;49.594;10.958;2023-04-28T06:36:47;11.13;;;6.78;;
9264;SDS011;4669;49.594;10.958;2023-04-28T06:41:50;9.02;;;5.72;;
9264;SDS011;4669;49.594;10.958;2023-04-28T06:46:53;9.25;;;5.63;;
9264;SDS011;4669;49.594;10.958;2023-04-28T06:51:55;7.90;;;6.57;;
9264;SDS011;4669;49.594;10.958;2023-04-28T06:56:57;7.28;;;5.55;;
9264;SDS011;4669;49.594;10.958;2023-04-28T07:02:01;8.73;;;5.85;;
9264;SDS011;4669;49.594;10.958;2023-04-28T07:07:03;7.75;;;5.93;;
9264;SDS011;4669;49.594;10.958;2023-04-28T07:12:07;10.77;;;6.65;;
9264;SDS011;4669;49.594;10.958;2023-04-28T07:17:10;7.53;;;6.75;;
9264;SDS011;4669;49.594;10.958;2023-04-28T07:22:12;11.75;;;6.80;;
9264;SDS011;4669;49.594;10.958;2023-04-28T07:27:14;9.52;;;6.25;;
9264;SDS011;4669;49.594;10.958;2023-04-28T07:32:18;7.53;;;6.07;;
9264;SDS011;4669;49.594;10.958;2023-04-28T07:37:20;12.27;;;6.85;;
9264;SDS011;4669;49.594;10.958;2023-04-28T07:42:22;7.97;;;6.97;;
9264;SDS011;4669;49.594;10.958;2023-04-28T07:47:25;10.75;;;7.38;;
9264;SDS011;4669;49.594;10.958;2023-04-28T07:52:28;13.18;;;7.68;;
9264;SDS011;4669;49.594;10.958;2023-04-28T07:57:31;9.75;;;6.53;;
9264;SDS011;4669;49.594;10.958;2023-04-28T08:02:34;14.35;;;7.30;;
9264;SDS011;4669;49.594;10.958;2023-04-28T08:07:36;8.82;;;6.95;;
9264;SDS011;4669;49.594;10.958;2023-04-28T08:12:38;8.90;;;7.97;;
9264;SDS011;4669;49.594;10.958;2023-04-28T08:17:42;10.00;;;8.00;;
9264;SDS011;4669;49.594;10.958;2023-04-28T08:22:44;23.15;;;10.13;;
9264;SDS011;4669;49.594;10.958;2023-04-28T08:27:46;13.93;;;9.82;;
9264;SDS011;4669;49.594;10.958;2023-04-28T08:32:50;13.07;;;8.85;;
9264;SDS011;4669;49.594;10.958;2023-04-28T08:37:52;12.60;;;7.68;;
9264;SDS011;4669;49.594;10.958;2023-04-28T08:42:54;11.52;;;8.23;;
9264;SDS011;4669;49.594;10.958;2023-04-28T08:47:58;10.15;;;8.43;;
9264;SDS011;4669;49.594;10.958;2023-04-28T08:53:01;11.15;;;8.88;;
9264;SDS011;4669;49.594;10.958;2023-04-28T08:58:05;10.68;;;8.65;;
9264;SDS011;4669;49.594;10.958;2023-04-28T09:03:10;10.80;;;8.18;;
9264;SDS011;4669;49.594;10.958;2023-04-28T09:08:12;10.52;;;9.15;;
9264;SDS011;4669;49.594;10.958;2023-04-28T09:13:23;15.40;;;9.00;;
9264;SDS011;4669;49.594;10.958;2023-04-28T09:18:27;10.80;;;8.73;;
9264;SDS011;4669;49.594;10.958;2023-04-28T09:23:31;11.07;;;9.15;;
9264;SDS011;4669;49.594;10.958;2023-04-28T09:28:34;15.45;;;9.52;;
9264;SDS011;4669;49.594;10.958;2023-04-28T09:33:38;12.40;;;9.45;;
9264;SDS011;4669;49.594;10.958;2023-04-28T09:38:57;12.48;;;9.55;;
9264;SDS011;4669;49.594;10.958;2023-04-28T09:44:08;16.00;;;10.00;;
9264;SDS011;4669;49.594;10.958;2023-04-28T09:49:13;12.10;;;9.88;;
9264;SDS011;4669;49.594;10.958;2023-04-28T09:54:15;11.85;;;9.52;;
9264;SDS011;4669;49.594;10.958;2023-04-28T09:59:18;12.20;;;9.07;;
9264;SDS011;4669;49.594;10.958;2023-04-28T10:04:22;12.13;;;8.55;;
9264;SDS011;4669;49.594;10.958;2023-04-28T10:09:24;14.05;;;9.05;;
9264;SDS011;4669;49.594;10.958;2023-04-28T10:14:28;13.23;;;9.20;;
9264;SDS011;4669;49.594;10.958;2023-04-28T10:19:33;10.52;;;8.75;;
9264;SDS011;4669;49.594;10.958;2023-04-28T10:24:43;9.77;;;8.77;;
9264;SDS011;4669;49.594;10.958;2023-04-28T10:35:40;12.75;;;10.32;;
9264;SDS011;4669;49.594;10.958;2023-04-28T10:40:44;10.93;;;9.32;;
9264;SDS011;4669;49.594;10.958;2023-04-28T10:46:00;11.13;;;9.45;;
9264;SDS011;4669;49.594;10.958;2023-04-28T10:51:28;11.20;;;9.52;;
9264;SDS011;4669;49.594;10.958;2023-04-28T10:56:34;10.68;;;9.40;;
9264;SDS011;4669;49.594;10.958;2023-04-28T11:01:36;11.50;;;10.27;;
9264;SDS011;4669;49.594;10.958;2023-04-28T11:06:41;11.45;;;9.38;;
9264;SDS011;4669;49.594;10.958;2023-04-28T11:12:02;14.18;;;10.93;;
9264;SDS011;4669;49.594;10.958;2023-04-28T11:17:06;10.23;;;9.02;;
9264;SDS011;4669;49.594;10.958;2023-04-28T11:22:15;12.57;;;8.90;;
9264;SDS011;4669;49.594;10.958;2023-04-28T11:27:21;10.70;;;8.73;;
9264;SDS011;4669;49.594;10.958;2023-04-28T11:32:27;9.60;;;8.13;;
9264;SDS011;4669;49.594;10.958;2023-04-28T11:37:32;9.10;;;8.20;;
9264;SDS011;4669;49.594;10.958;2023-04-28T11:42:34;8.00;;;7.22;;
9264;SDS011;4669;49.594;10.958;2023-04-28T11:47:36;8.75;;;7.85;;
9264;SDS011;4669;49.594;10.958;2023-04-28T11:52:48;8.13;;;7.15;;
9264;SDS011;4669;49.594;10.958;2023-04-28T12:03:21;10.50;;;9.25;;
9264;SDS011;4669;49.594;10.958;2023-04-28T12:08:27;12.43;;;8.68;;
9264;SDS011;4669;49.594;10.958;2023-04-28T12:13:30;9.35;;;7.80;;
9264;SDS011;4669;49.594;10.958;2023-04-28T12:18:32;8.60;;;7.80;;
9264;SDS011;4669;49.594;10.958;2023-04-28T12:23:36;8.32;;;7.53;;
9264;SDS011;4669;49.594;10.958;2023-04-28T12:28:39;14.60;;;11.45;;
9264;SDS011;4669;49.594;10.958;2023-04-28T12:33:42;15.27;;;11.32;;
9264;SDS011;4669;49.594;10.958;2023-04-28T12:38:49;13.70;;;11.40;;
9264;SDS011;4669;49.594;10.958;2023-04-28T12:43:51;9.40;;;8.50;;
9264;SDS011;4669;49.594;10.958;2023-04-28T12:48:53;15.82;;;12.45;;
9264;SDS011;4669;49.594;10.958;2023-04-28T12:53:57;10.13;;;9.13;;
9264;SDS011;4669;49.594;10.958;2023-04-28T12:58:59;9.57;;;8.68;;
9264;SDS011;4669;49.594;10.958;2023-04-28T13:04:02;8.63;;;7.82;;
9264;SDS011;4669;49.594;10.958;2023-04-28T13:09:06;8.07;;;7.28;;
9264;SDS011;4669;49.594;10.958;2023-04-28T13:14:08;8.95;;;8.13;;
9264;SDS011;4669;49.594;10.958;2023-04-28T13:19:10;8.63;;;7.75;;
9264;SDS011;4669;49.594;10.958;2023-04-28T13:24:15;8.02;;;7.32;;
9264;SDS011;4669;49.594;10.958;2023-04-28T13:29:17;9.35;;;8.43;;
9264;SDS011;4669;49.594;10.958;2023-04-28T13:34:19;8.30;;;7.50;;
9264;SDS011;4669;49.594;10.958;2023-04-28T13:39:23;9.43;;;8.38;;
9264;SDS011;4669;49.594;10.958;2023-04-28T13:44:25;8.40;;;7.60;;
9264;SDS011;4669;49.594;10.958;2023-04-28T13:49:27;7.05;;;6.35;;
9264;SDS011;4669;49.594;10.958;2023-04-28T13:54:30;7.30;;;6.57;;
9264;SDS011;4669;49.594;10.958;2023-04-28T13:59:32;9.75;;;7.45;;
9264;SDS011;4669;49.594;10.958;2023-04-28T14:04:35;8.77;;;7.57;;
9264;SDS011;4669;49.594;10.958;2023-04-28T14:09:38;7.68;;;6.47;;
9264;SDS011;4669;49.594;10.958;2023-04-28T14:14:40;6.72;;;6.10;;
9264;SDS011;4669;49.594;10.958;2023-04-28T14:19:50;6.72;;;6.18;;
9264;SDS011;4669;49.594;10.958;2023-04-28T14:24:52;6.38;;;5.50;;
9264;SDS011;4669;49.594;10.958;2023-04-28T14:29:55;6.65;;;6.05;;
9264;SDS011;4669;49.594;10.958;2023-04-28T14:40:16;6.78;;;6.15;;
9264;SDS011;4669;49.594;10.958;2023-04-28T14:45:18;7.57;;;6.85;;
9264;SDS011;4669;49.594;10.958;2023-04-28T14:50:22;6.63;;;6.03;;
9264;SDS011;4669;49.594;10.958;2023-04-28T14:55:24;6.90;;;6.30;;
9264;SDS011;4669;49.594;10.958;2023-04-28T15:00:27;6.55;;;6.05;;
9264;SDS011;4669;49.594;10.958;2023-04-28T15:05:31;6.95;;;6.35;;
9264;SDS011;4669;49.594;10.958;2023-04-28T15:10:36;6.20;;;5.70;;
9264;SDS011;4669;49.594;10.958;2023-04-28T15:15:39;6.32;;;5.72;;
9264;SDS011;4669;49.594;10.958;2023-04-28T15:20:42;6.32;;;5.70;;
9264;SDS011;4669;49.594;10.958;2023-04-28T15:25:45;7.60;;;6.25;;
9264;SDS011;4669;49.594;10.958;2023-04-28T15:30:49;5.90;;;5.30;;
9264;SDS011;4669;49.594;10.958;2023-04-28T15:35:52;6.43;;;5.82;;
9264;SDS011;4669;49.594;10.958;2023-04-28T15:40:54;4.97;;;4.60;;
9264;SDS011;4669;49.594;10.958;2023-04-28T15:45:56;5.85;;;5.20;;
9264;SDS011;4669;49.594;10.958;2023-04-28T15:51:01;4.53;;;4.13;;
9264;SDS011;4669;49.594;10.958;2023-04-28T15:56:03;4.22;;;3.92;;
9264;SDS011;4669;49.594;10.958;2023-04-28T16:01:05;4.93;;;4.53;;
9264;SDS011;4669;49.594;10.958;2023-04-28T16:06:09;4.45;;;4.05;;
9264;SDS011;4669;49.594;10.958;2023-04-28T16:11:11;5.22;;;4.72;;
9264;SDS011;4669;49.594;10.958;2023-04-28T16:16:18;4.47;;;4.18;;
9264;SDS011;4669;49.594;10.958;2023-04-28T16:21:21;5.47;;;4.75;;
9264;SDS011;4669;49.594;10.958;2023-04-28T16:26:24;5.38;;;4.88;;
9264;SDS011;4669;49.594;10.958;2023-04-28T16:31:26;4.63;;;3.90;;
9264;SDS011;4669;49.594;10.958;2023-04-28T16:36:30;4.80;;;4.40;;
9264;SDS011;4669;49.594;10.958;2023-04-28T16:41:32;5.57;;;5.07;;
9264;SDS011;4669;49.594;10.958;2023-04-28T16:46:35;5.00;;;4.60;;
9264;SDS011;4669;49.594;10.958;2023-04-28T16:51:39;5.78;;;5.28;;
9264;SDS011;4669;49.594;10.958;2023-04-28T16:56:55;5.45;;;4.97;;
9264;SDS011;4669;49.594;10.958;2023-04-28T17:01:57;4.85;;;4.43;;
9264;SDS011;4669;49.594;10.958;2023-04-28T17:07:02;4.95;;;4.55;;
9264;SDS011;4669;49.594;10.958;2023-04-28T17:12:04;5.28;;;4.78;;
9264;SDS011;4669;49.594;10.958;2023-04-28T17:17:06;5.53;;;4.68;;
9264;SDS011;4669;49.594;10.958;2023-04-28T17:22:11;5.65;;;5.18;;
9264;SDS011;4669;49.594;10.958;2023-04-28T17:27:13;6.20;;;5.60;;
9264;SDS011;4669;49.594;10.958;2023-04-28T17:32:15;5.50;;;4.60;;
9264;SDS011;4669;49.594;10.958;2023-04-28T17:37:19;3.80;;;3.40;;
9264;SDS011;4669;49.594;10.958;2023-04-28T17:42:21;3.28;;;2.97;;
9264;SDS011;4669;49.594;10.958;2023-04-28T17:47:23;3.08;;;2.80;;
9264;SDS011;4669;49.594;10.958;2023-04-28T17:52:26;2.90;;;2.70;;
9264;SDS011;4669;49.594;10.958;2023-04-28T17:57:28;2.83;;;2.45;;
9264;SDS011;4669;49.594;10.958;2023-04-28T18:02:31;2.95;;;2.75;;
9264;SDS011;4669;49.594;10.958;2023-04-28T18:07:34;2.20;;;2.08;;
9264;SDS011;4669;49.594;10.958;2023-04-28T18:12:36;2.58;;;2.38;;
9264;SDS011;4669;49.594;10.958;2023-04-28T18:17:38;2.40;;;2.08;;
9264;SDS011;4669;49.594;10.958;2023-04-28T18:22:42;2.00;;;1.90;;
9264;SDS011;4669;49.594;10.958;2023-04-28T18:27:44;11.18;;;7.50;;
9264;SDS011;4669;49.594;10.958;2023-04-28T18:32:46;6.03;;;5.40;;
9264;SDS011;4669;49.594;10.958;2023-04-28T18:37:51;4.65;;;3.70;;
9264;SDS011;4669;49.594;10.958;2023-04-28T18:42:53;3.45;;;3.10;;
9264;SDS011;4669;49.594;10.958;2023-04-28T18:47:55;2.83;;;2.63;;
9264;SDS011;4669;49.594;10.958;2023-04-28T18:52:59;3.47;;;2.50;;
9264;SDS011;4669;49.594;10.958;2023-04-28T18:58:02;5.22;;;3.70;;
9264;SDS011;4669;49.594;10.958;2023-04-28T19:03:04;17.13;;;15.27;;
9264;SDS011;4669;49.594;10.958;2023-04-28T19:08:08;26.90;;;22.67;;
9264;SDS011;4669;49.594;10.958;2023-04-28T19:13:10;14.85;;;13.35;;
9264;SDS011;4669;49.594;10.958;2023-04-28T19:18:13;9.05;;;8.15;;
9264;SDS011;4669;49.594;10.958;2023-04-28T19:23:17;7.82;;;6.13;;
9264;SDS011;4669;49.594;10.958;2023-04-28T19:28:19;10.27;;;7.00;;
9264;SDS011;4669;49.594;10.958;2023-04-28T19:33:22;9.40;;;7.32;;
9264;SDS011;4669;49.594;10.958;2023-04-28T19:38:26;6.60;;;5.57;;
9264;SDS011;4669;49.594;10.958;2023-04-28T19:43:28;5.00;;;4.60;;
9264;SDS011;4669;49.594;10.958;2023-04-28T19:48:30;6.28;;;5.68;;
9264;SDS011;4669;49.594;10.958;2023-04-28T19:53:34;6.50;;;5.45;;
9264;SDS011;4669;49.594;10.958;2023-04-28T19:58:39;5.72;;;4.55;;
9264;SDS011;4669;49.594;10.958;2023-04-28T20:03:41;6.43;;;5.45;;
9264;SDS011;4669;49.594;10.958;2023-04-28T20:08:45;4.85;;;4.38;;
9264;SDS011;4669;49.594;10.958;2023-04-28T20:13:47;4.50;;;4.10;;
9264;SDS011;4669;49.594;10.958;2023-04-28T20:18:49;3.75;;;3.45;;
9264;SDS011;4669;49.594;10.958;2023-04-28T20:23:53;4.55;;;4.15;;
9264;SDS011;4669;49.594;10.958;2023-04-28T20:28:55;4.00;;;3.60;;
9264;SDS011;4669;49.594;10.958;2023-04-28T20:33:58;12.38;;;6.90;;
9264;SDS011;4669;49.594;10.958;2023-04-28T20:39:01;13.20;;;7.90;;
9264;SDS011;4669;49.594;10.958;2023-04-28T20:44:03;4.68;;;4.10;;
9264;SDS011;4669;49.594;10.958;2023-04-28T20:49:05;3.65;;;3.35;;
9264;SDS011;4669;49.594;10.958;2023-04-28T20:54:09;6.32;;;5.72;;
9264;SDS011;4669;49.594;10.958;2023-04-28T20:59:11;3.28;;;2.97;;
9264;SDS011;4669;49.594;10.958;2023-04-28T21:04:13;2.75;;;2.55;;
9264;SDS011;4669;49.594;10.958;2023-04-28T21:09:16;2.40;;;2.20;;
9264;SDS011;4669;49.594;10.958;2023-04-28T21:14:19;6.50;;;2.70;;
9264;SDS011;4669;49.594;10.958;2023-04-28T21:19:22;3.25;;;2.28;;
9264;SDS011;4669;49.594;10.958;2023-04-28T21:24:26;2.72;;;2.00;;
9264;SDS011;4669;49.594;10.958;2023-04-28T21:29:28;2.60;;;2.30;;
9264;SDS011;4669;49.594;10.958;2023-04-28T21:34:30;3.63;;;2.58;;
9264;SDS011;4669;49.594;10.958;2023-04-28T21:39:34;3.75;;;2.70;;
9264;SDS011;4669;49.594;10.958;2023-04-28T21:44:36;2.40;;;1.90;;
9264;SDS011;4669;49.594;10.958;2023-04-28T21:49:38;2.00;;;1.90;;
9264;SDS011;4669;49.594;10.958;2023-04-28T21:54:42;2.58;;;2.15;;
9264;SDS011;4669;49.594;10.958;2023-04-28T21:59:44;3.35;;;2.47;;
